Latest Weather Observations for Coonabarabran Airport

IDN60801

Issued at 8:02 pm EST Tuesday 31 May 2016 (issued every 30 minutes, with the page automatically refreshed every 10 minutes)

About weather observations | Map of weather stations | Latest weather observations for NSW | Other Formats
Station Details ID: 064017 Name: COONABARABRAN AIRPORT AWS Lat: -31.33 Lon: 149.27 Height: 645.0 m
Data from the previous 72 hours. | See also: Recent months at Coonabarabran Airport
Date/Time
EST
Temp
°C
App
Temp
°C
Dew
Point
Rel
Hum
%
Delta-T
°C
Wind Press
QNH
hPa
Press
MSL
hPa
Rain
since 9 am
mm
Dir
 
Spd
km/h
Gust
km/h
Spd
kts
Gust
kts
31/08:00pm 11.4 7.9 1.4 50 4.4 NE 9 11 5 6 1026.3 1025.4 0.0
31/07:30pm 11.3 7.9 1.8 52 4.2 NE 9 11 5 6 1026.1 1025.2 0.0
31/07:00pm 11.3 7.8 1.5 51 4.3 NE 9 13 5 7 1025.8 1024.9 0.0
31/06:30pm 11.0 7.5 1.3 51 4.2 ENE 9 13 5 7 1025.6 1024.8 0.0
31/06:00pm 12.1 8.7 1.7 49 4.6 NE 9 13 5 7 1025.4 1024.6 0.0
31/05:30pm 12.4 9.4 1.7 48 4.8 NNE 7 13 4 7 1025.1 1024.2 0.0
31/05:00pm 13.9 10.8 1.5 43 5.5 NNE 7 15 4 8 1025.0 1024.1 0.0
31/04:30pm 14.7 10.9 1.6 41 5.9 N 11 15 6 8 1024.8 1023.9 0.0
31/04:00pm 15.3 11.0 1.1 38 6.4 N 13 17 7 9 1024.6 1023.7 0.0
31/03:30pm 15.8 11.5 1.2 37 6.6 NNE 13 20 7 11 1024.7 1023.8 0.0
31/03:00pm 15.6 11.9 2.1 40 6.2 N 11 20 6 11 1024.6 1023.7 0.0
31/02:30pm 15.3 10.7 1.4 39 6.3 NNE 15 22 8 12 1024.5 1023.6 0.0
31/02:00pm 15.2 11.0 1.4 39 6.2 NNE 13 19 7 10 1024.7 1023.8 0.0
31/01:30pm 14.9 10.0 1.8 41 6.0 N 17 22 9 12 1024.9 1024.0 0.0
31/01:00pm 15.1 10.6 2.3 42 5.9 N 15 22 8 12 1025.2 1024.3 0.0
31/12:30pm 14.4 9.9 2.0 43 5.6 NNE 15 22 8 12 1025.4 1024.6 0.0
31/12:00pm 14.4 9.6 2.6 45 5.4 N 17 26 9 14 1026.0 1025.1 0.0
31/11:30am 13.7 9.0 3.2 49 4.9 NNE 17 26 9 14 1026.4 1025.5 0.0
31/11:00am 13.1 9.1 4.8 57 3.9 NE 15 20 8 11 1026.9 1026.1 0.0
31/10:30am 12.1 7.2 5.0 62 3.4 NE 20 26 11 14 1027.1 1026.3 0.0
31/10:00am 11.2 6.4 5.5 68 2.7 NE 20 24 11 13 1027.3 1026.5 0.0
31/09:30am 10.2 5.4 4.8 69 2.5 NE 19 24 10 13 1027.3 1026.5 0.0
31/09:00am 9.0 3.9 4.0 71 2.3 NE 20 24 11 13 1027.2 1026.4 0.2
31/08:30am 8.0 3.0 3.7 74 1.9 ENE 19 22 10 12 1026.9 1026.1 0.2
31/08:00am 7.0 2.6 2.9 75 1.8 ENE 15 20 8 11 1026.7 1025.8 0.2
31/07:30am 5.4 0.5 1.9 78 1.5 ENE 17 20 9 11 1026.6 1025.7 0.2
31/07:00am 4.8 -0.6 1.1 77 1.5 E 19 22 10 12 1026.2 1025.3 0.2
31/06:30am 4.3 -1.2 0.8 78 1.4 E 19 22 10 12 1026.0 1025.1 0.2
31/06:00am 4.7 -0.8 0.8 76 1.6 E 19 24 10 13 1025.5 1024.7 0.2
31/05:30am 4.6 -0.1 0.6 75 1.6 E 15 19 8 10 1025.4 1024.6 0.2
31/05:00am 5.1 0.8 0.9 74 1.7 ESE 13 15 7 8 1025.1 1024.2 0.2
31/04:30am 5.0 1.0 0.6 73 1.8 ESE 11 13 6 7 1024.8 1023.9 0.2
31/04:00am 5.1 0.4 0.7 73 1.8 E 15 19 8 10 1024.9 1024.0 0.2
31/03:30am 5.2 0.9 0.8 73 1.8 ENE 13 15 7 8 1024.8 1023.9 0.2
31/03:00am 4.9 0.5 0.5 73 1.8 E 13 15 7 8 1024.6 1023.7 0.2
31/02:30am 5.0 0.6 0.6 73 1.8 E 13 15 7 8 1024.7 1023.8 0.2
31/02:00am 5.7 1.8 1.1 72 1.9 E 11 13 6 7 1024.9 1024.0 0.2
31/01:30am 5.6 2.1 1.2 73 1.8 E 9 11 5 6 1025.0 1024.1 0.2
31/01:00am 6.7 3.5 1.0 67 2.3 ESE 7 11 4 6 1025.2 1024.3 0.2
31/12:30am 6.7 3.5 1.0 67 2.4 SSE 7 15 4 8 1025.3 1024.4 0.2
31/12:00am 7.0 4.0 0.9 65 2.5 SE 6 11 3 6 1025.6 1024.8 0.2
 
Date/Time
EST
Temp
°C
App
Temp
°C
Dew
Point
Rel
Hum
%
Delta-T
°C
Wind Press
QNH
hPa
Press
MSL
hPa
Rain
since 9 am
mm
Dir
 
Spd
km/h
Gust
km/h
Spd
kts
Gust
kts
30/11:30pm 7.3 3.8 1.0 64 2.6 SE 9 15 5 8 1025.9 1025.0 0.2
30/11:00pm 7.6 4.6 1.0 63 2.7 SSE 6 11 3 6 1025.8 1024.9 0.2
30/10:30pm 7.7 4.1 0.7 61 2.9 S 9 19 5 10 1025.8 1024.9 0.2
30/10:00pm 7.6 4.1 1.0 63 2.7 SSW 9 15 5 8 1025.6 1024.8 0.2
30/09:30pm 7.8 4.3 1.0 62 2.9 S 9 15 5 8 1025.6 1024.8 0.2
30/09:00pm 7.8 4.2 0.8 61 2.9 S 9 15 5 8 1025.6 1024.8 0.2
30/08:30pm 7.7 4.6 1.3 64 2.7 SSE 7 15 4 8 1025.5 1024.7 0.2
30/08:00pm 7.8 4.4 1.6 65 2.6 SSW 9 15 5 8 1025.4 1024.6 0.2
30/07:30pm 7.9 4.4 1.5 64 2.7 SSE 9 15 5 8 1025.1 1024.2 0.2
30/07:00pm 7.8 4.4 1.9 66 2.5 SSE 9 15 5 8 1024.6 1023.7 0.2
30/06:30pm 8.2 4.8 2.0 65 2.7 SSE 9 11 5 6 1024.5 1023.6 0.2
30/06:00pm 9.0 5.5 1.2 58 3.3 ESE 9 13 5 7 1024.2 1023.3 0.2
30/05:30pm 9.2 6.2 1.9 60 3.2 SE 7 13 4 7 1023.8 1022.9 0.2
30/05:00pm 9.7 6.7 2.3 60 3.2 ESE 7 15 4 8 1023.6 1022.7 0.2
30/04:30pm 10.3 7.0 2.7 59 3.4 SE 9 11 5 6 1023.4 1022.5 0.2
30/04:00pm 11.3 7.6 2.6 55 3.9 ESE 11 15 6 8 1023.2 1022.3 0.2
30/03:30pm 11.4 8.1 2.4 54 4.0 ESE 9 11 5 6 1023.2 1022.3 0.2
30/03:00pm 12.2 9.3 2.4 51 4.4 E 7 13 4 7 1023.0 1022.1 0.2
30/02:30pm 12.5 10.5 2.4 50 4.6 WNW 2 11 1 6 1023.1 1022.2 0.2
30/02:00pm 12.0 9.1 2.7 53 4.2 W 7 15 4 8 1023.1 1022.2 0.2
30/01:30pm 11.7 9.2 3.5 57 3.8 S 6 19 3 10 1023.0 1022.1 0.2
30/01:00pm 10.9 7.9 2.2 55 3.8 ENE 7 15 4 8 1023.3 1022.4 0.2
30/12:30pm 10.4 7.6 3.0 60 3.3 SW 7 13 4 7 1023.6 1022.7 0.2
30/12:00pm 10.3 7.5 2.9 60 3.3 SW 7 15 4 8 1023.9 1023.0 0.2
30/11:30am 9.3 6.5 2.9 64 2.8 SSW 7 17 4 9 1024.6 1023.7 0.0
30/11:00am 9.0 7.1 2.8 65 2.7 S 2 11 1 6 1024.9 1024.0 0.0
30/10:30am 7.3 4.4 2.4 71 2.1 S 7 15 4 8 1024.9 1024.0 0.0
30/10:00am 6.6 3.2 2.1 73 1.9 SSW 9 13 5 7 1024.9 1024.0 0.0
30/09:30am 6.0 1.9 2.3 77 1.6 S 13 15 7 8 1024.9 1024.0 0.0
30/09:00am 5.5 2.1 1.6 76 1.6 SSW 9 15 5 8 1024.9 1024.0 0.0
30/08:30am 5.1 1.7 1.9 80 1.3 SSW 9 13 5 7 1024.5 1023.6 0.0
30/08:00am 4.3 0.5 1.5 82 1.1 SSW 11 15 6 8 1024.4 1023.5 0.0
30/07:30am 3.7 -0.6 1.1 83 1.0 SSW 13 15 7 8 1024.2 1023.3 0.0
30/07:00am 3.4 -0.9 1.0 84 1.0 SW 13 17 7 9 1023.8 1022.9 0.0
30/06:30am 3.2 -1.1 0.9 85 0.9 SW 13 15 7 8 1023.5 1022.6 0.0
30/06:00am 2.9 -1.4 0.8 86 0.8 SW 13 15 7 8 1023.2 1022.3 0.0
30/05:30am 3.0 -1.7 1.1 87 0.8 SW 15 17 8 9 1022.9 1022.0 0.0
30/05:00am 3.1 -0.8 1.0 86 0.8 SW 11 13 6 7 1022.5 1021.5 0.0
30/04:30am 3.1 -0.8 1.2 87 0.8 SSW 11 13 6 7 1022.1 1021.2 0.0
30/04:00am 3.1 -0.8 1.0 86 0.8 SSW 11 15 6 8 1022.2 1021.3 0.0
30/03:30am 3.3 -0.2 1.2 86 0.8 SSW 9 13 5 7 1022.1 1021.2 0.0
30/03:00am 3.4 -0.5 1.1 85 0.9 SSW 11 13 6 7 1022.1 1021.2 0.0
30/02:30am 3.5 0.0 1.4 86 0.9 SW 9 11 5 6 1022.1 1021.2 0.0
30/02:00am 3.7 0.3 1.7 87 0.8 SSW 9 15 5 8 1022.3 1021.4 0.0
30/01:30am 3.6 -0.2 1.6 87 0.8 SSW 11 13 6 7 1022.2 1021.3 0.0
30/01:00am 3.6 -0.2 1.6 87 0.8 SSW 11 11 6 6 1022.2 1021.3 0.0
30/12:30am 3.6 -0.2 1.5 86 0.9 SSW 11 13 6 7 1022.3 1021.4 0.0
30/12:00am 3.9 0.0 1.4 84 1.0 SSW 11 13 6 7 1022.3 1021.4 0.0
 
Date/Time
EST
Temp
°C
App
Temp
°C
Dew
Point
Rel
Hum
%
Delta-T
°C
Wind Press
QNH
hPa
Press
MSL
hPa
Rain
since 9 am
mm
Dir
 
Spd
km/h
Gust
km/h
Spd
kts
Gust
kts
29/11:30pm 4.4 0.6 1.8 83 1.1 SSW 11 15 6 8 1022.6 1021.6 0.0
29/11:00pm 4.4 1.0 1.6 82 1.1 SSW 9 13 5 7 1022.6 1021.6 0.0
29/10:30pm 5.0 0.9 2.0 81 1.3 SW 13 15 7 8 1022.5 1021.5 0.0
29/10:00pm 5.1 1.0 2.1 81 1.3 SW 13 17 7 9 1022.3 1021.4 0.0
29/09:30pm 5.2 0.7 2.4 82 1.2 SW 15 20 8 11 1022.5 1021.5 0.0
29/09:00pm 5.0 0.9 2.2 82 1.2 SW 13 17 7 9 1022.5 1021.5 0.0
29/08:30pm 5.5 1.1 2.5 81 1.3 SW 15 19 8 10 1022.3 1021.4 0.0
29/08:00pm 5.8 1.3 2.4 79 1.4 SW 15 20 8 11 1022.2 1021.3 0.0
29/07:30pm 6.2 1.4 2.7 78 1.5 SW 17 20 9 11 1022.0 1021.1 0.0
29/07:00pm 6.2 2.2 2.7 78 1.5 SW 13 17 7 9 1021.6 1020.7 0.0
29/06:30pm 6.7 3.0 2.4 74 1.8 SW 11 15 6 8 1021.4 1020.5 0.0
29/06:00pm 7.1 3.1 2.6 73 1.9 SW 13 17 7 9 1021.1 1020.1 0.0
29/05:30pm 7.7 4.1 2.8 71 2.1 SW 11 13 6 7 1020.9 1019.9 0.0
29/05:00pm 8.7 5.0 2.5 65 2.7 SSW 11 15 6 8 1020.8 1019.8 0.0
29/04:30pm 9.8 6.1 2.4 60 3.3 SSW 11 15 6 8 1020.5 1019.6 0.0
29/04:00pm 10.3 6.3 2.7 59 3.4 S 13 19 7 10 1020.1 1019.2 0.0
29/03:30pm 10.7 6.4 3.0 59 3.5 SSW 15 20 8 11 1020.1 1019.2 0.0
29/03:00pm 11.3 7.4 3.3 58 3.6 WSW 13 20 7 11 1019.9 1018.9 0.0
29/02:30pm 11.5 7.0 4.0 60 3.5 SSW 17 24 9 13 1019.8 1018.8 0.0
29/02:00pm 11.4 6.8 3.9 60 3.5 SSW 17 24 9 13 1019.7 1018.7 0.0
29/01:30pm 10.3 5.5 2.4 58 3.5 SSW 17 22 9 12 1019.6 1018.6 0.0
29/01:00pm 10.1 5.4 2.9 61 3.2 SW 17 20 9 11 1019.9 1018.9 0.0
29/12:30pm 10.0 5.7 3.3 63 3.0 SSW 15 20 8 11 1020.1 1019.2 0.0
29/12:00pm 10.6 5.6 3.4 61 3.3 SW 19 28 10 15 1020.3 1019.4 0.0
29/11:30am 9.8 5.2 3.5 65 2.9 SSW 17 22 9 12 1020.4 1019.5 0.0
29/11:00am 9.8 4.9 4.0 67 2.6 WSW 19 28 10 15 1020.5 1019.6 0.0
29/10:30am 9.3 5.3 4.9 74 2.0 SSW 15 22 8 12 1020.5 1019.6 0.0
29/10:00am 9.0 5.4 5.2 77 1.8 SW 13 20 7 11 1020.4 1019.5 0.0
29/09:30am 7.9 4.6 4.5 79 1.5 SW 11 17 6 9 1020.4 1019.5 0.0
29/09:00am 7.2 2.8 4.9 85 1.0 SW 17 20 9 11 1020.1 1019.2 1.6
29/08:30am 7.4 4.0 3.8 78 1.6 WSW 11 13 6 7 1019.7 1018.7 1.6
29/08:00am 6.8 3.5 4.5 85 1.0 WSW 11 13 6 7 1019.5 1018.5 1.6
29/07:30am 6.0 2.3 4.5 90 0.7 WSW 13 17 7 9 1019.0 1018.1 1.6
29/07:00am 6.5 2.6 5.5 93 0.5 SSW 15 19 8 10 1018.8 1017.9 1.6
29/06:30am 6.6 2.3 5.1 90 0.7 SSW 17 26 9 14 1018.3 1017.3 1.6
29/06:00am 6.5 2.2 5.1 91 0.6 SSW 17 22 9 12 1018.1 1017.1 1.6
29/05:30am 6.7 1.9 5.7 93 0.5 SW 20 26 11 14 1017.7 1016.7 1.6
29/05:00am 6.3 1.5 5.6 95 0.3 SSW 20 26 11 14 1017.3 1016.4 1.6
29/04:30am 6.4 1.6 5.7 95 0.3 SSW 20 28 11 15 1017.2 1016.2 1.6
29/04:00am 6.7 2.5 5.7 93 0.5 SW 17 20 9 11 1017.2 1016.2 1.4
29/03:30am 6.4 2.0 5.0 91 0.6 SW 17 20 9 11 1017.1 1016.1 1.4
29/03:00am 6.5 2.1 4.7 88 0.8 WSW 17 22 9 12 1017.3 1016.4 1.4
29/02:30am 7.0 3.4 5.0 87 0.9 SW 13 17 7 9 1017.3 1016.4 1.4
29/02:00am 6.9 3.2 4.7 86 1.0 WSW 13 19 7 10 1017.5 1016.5 1.4
29/01:30am 6.7 2.8 5.5 92 0.6 SSW 15 19 8 10 1017.5 1016.5 1.4
29/01:00am 6.9 2.9 5.1 88 0.8 WSW 15 22 8 12 1017.3 1016.4 1.4
29/12:30am 6.6 3.5 5.4 92 0.6 SW 11 15 6 8 1017.5 1016.5 1.4
29/12:00am 6.6 2.4 5.6 93 0.5 SW 17 22 9 12 1017.5 1016.5 1.4
 
Date/Time
EST
Temp
°C
App
Temp
°C
Dew
Point
Rel
Hum
%
Delta-T
°C
Wind Press
QNH
hPa
Press
MSL
hPa
Rain
since 9 am
mm
Dir
 
Spd
km/h
Gust
km/h
Spd
kts
Gust
kts
28/11:30pm 6.6 3.0 5.2 91 0.6 WSW 13 20 7 11 1017.5 1016.5 1.2
28/11:00pm 6.5 2.1 5.0 90 0.7 SW 17 24 9 13 1017.3 1016.4 1.2
28/10:30pm 6.8 1.6 5.6 92 0.6 SW 22 35 12 19 1017.2 1016.2 1.2
28/10:00pm 7.3 4.2 5.6 89 0.8 SSW 11 17 6 9 1016.8 1015.8 1.2
28/09:30pm 7.4 3.5 5.4 87 0.9 SW 15 20 8 11 1016.7 1015.7 1.2
28/09:00pm 7.7 3.7 4.8 82 1.3 WSW 15 20 8 11 1016.5 1015.5 1.2
28/08:30pm 7.6 2.9 5.1 84 1.2 WSW 19 26 10 14 1016.2 1015.2 1.2

Other Formats:

Comma delimited format used in spreadsheet applications
http://www.bom.gov.au/fwo/IDN60801/IDN60801.95728.axf

JavaScript Object Notation format (JSON) in row-major order
http://www.bom.gov.au/fwo/IDN60801/IDN60801.95728.json